createdAt,value
2018-05-08T00:00:06.491Z,16.05
2018-05-08T00:02:32.412Z,16.08
2018-05-08T00:04:58.338Z,15.88
2018-05-08T00:07:25.998Z,15.82
2018-05-08T00:09:51.896Z,15.73
2018-05-08T00:12:21.037Z,15.71
2018-05-08T00:14:48.063Z,15.63
2018-05-08T00:17:14.994Z,15.66
2018-05-08T00:19:40.878Z,15.65
2018-05-08T00:22:10.131Z,15.61
2018-05-08T00:24:36.005Z,15.52
2018-05-08T00:27:04.273Z,15.47
2018-05-08T00:29:30.227Z,15.46
2018-05-08T00:31:59.378Z,15.43
2018-05-08T00:34:25.319Z,15.38
2018-05-08T00:36:51.224Z,15.31
2018-05-08T00:39:17.122Z,15.27
2018-05-08T00:41:43.052Z,15.24
2018-05-08T00:44:10.594Z,15.30
2018-05-08T00:46:36.489Z,15.23
2018-05-08T00:49:05.951Z,15.26
2018-05-08T00:51:31.873Z,15.18
2018-05-08T00:54:01.771Z,15.03
2018-05-08T00:56:27.654Z,15.12
2018-05-08T00:58:54.596Z,15.19
2018-05-08T01:01:20.516Z,15.13
2018-05-08T01:03:49.352Z,15.29
2018-05-08T01:06:15.411Z,15.46
2018-05-08T01:08:44.801Z,15.62
2018-05-08T01:11:10.710Z,15.77
2018-05-08T01:13:36.687Z,15.84
2018-05-08T01:16:02.612Z,15.95
2018-05-08T01:18:28.523Z,16.08
2018-05-08T01:20:57.710Z,16.17
2018-05-08T01:23:23.579Z,16.13
2018-05-08T01:25:50.836Z,16.16
2018-05-08T01:28:16.752Z,16.12
2018-05-08T01:30:45.160Z,16.13
2018-05-08T01:33:11.052Z,16.24
2018-05-08T01:35:41.660Z,16.32
2018-05-08T01:38:07.563Z,16.38
2018-05-08T01:40:35.304Z,16.40
2018-05-08T01:43:01.261Z,16.42
2018-05-08T01:45:30.479Z,16.43
2018-05-08T01:47:56.381Z,16.50
2018-05-08T01:50:22.301Z,16.54
2018-05-08T01:52:48.311Z,16.56
2018-05-08T01:55:14.234Z,16.57
2018-05-08T01:57:41.752Z,16.62
2018-05-08T02:00:07.694Z,16.57
2018-05-08T02:02:37.304Z,16.59
2018-05-08T02:05:03.192Z,16.53
2018-05-08T02:07:30.526Z,16.51
2018-05-08T02:09:56.452Z,16.52
2018-05-08T02:12:25.591Z,16.52
2018-05-08T02:14:52.008Z,16.48
2018-05-08T02:17:21.766Z,16.48
2018-05-08T02:19:47.679Z,16.47
2018-05-08T02:22:14.727Z,16.52
2018-05-08T02:24:40.625Z,16.48
2018-05-08T02:27:06.497Z,16.59
2018-05-08T02:29:32.383Z,16.59
2018-05-08T02:31:58.279Z,16.58
2018-05-08T02:34:26.777Z,16.59
2018-05-08T02:36:52.675Z,16.59
2018-05-08T02:39:21.993Z,16.56
2018-05-08T02:41:47.859Z,16.53
2018-05-08T02:44:17.395Z,16.41
2018-05-08T02:46:43.281Z,16.43
2018-05-08T02:49:12.367Z,16.51
2018-05-08T02:51:38.304Z,16.53
2018-05-08T02:54:05.436Z,16.58
2018-05-08T02:56:31.347Z,16.51
2018-05-08T02:59:00.548Z,16.50
2018-05-08T03:01:26.436Z,16.51
2018-05-08T03:03:52.333Z,16.47
2018-05-08T03:06:18.278Z,16.57
2018-05-08T03:08:44.195Z,16.43
2018-05-08T03:11:11.946Z,16.05
2018-05-08T03:13:37.891Z,15.72
2018-05-08T03:16:06.597Z,15.38
2018-05-08T03:18:32.502Z,14.98
2018-05-08T03:21:01.674Z,14.79
2018-05-08T03:23:27.591Z,14.33
2018-05-08T03:25:56.855Z,13.83
2018-05-08T03:28:22.739Z,13.48
2018-05-08T03:30:52.070Z,13.36
2018-05-08T03:33:18.051Z,13.23
2018-05-08T03:35:45.523Z,13.29
2018-05-08T03:38:11.433Z,13.35
2018-05-08T03:40:37.391Z,13.25
2018-05-08T03:43:03.286Z,13.31
2018-05-08T03:45:29.180Z,13.34
2018-05-08T03:47:58.110Z,13.33
2018-05-08T03:50:24.069Z,13.42
2018-05-08T03:52:53.491Z,13.43
2018-05-08T03:55:19.365Z,13.29
2018-05-08T03:57:46.585Z,12.95
2018-05-08T04:00:24.822Z,12.86
2018-05-08T04:03:03.047Z,12.69
2018-05-08T04:05:41.352Z,12.41
2018-05-08T04:08:19.717Z,12.43
2018-05-08T04:10:45.538Z,12.53
2018-05-08T04:13:11.471Z,12.61
2018-05-08T04:15:37.399Z,12.71
2018-05-08T04:18:03.319Z,12.88
2018-05-08T04:20:29.202Z,12.96
2018-05-08T04:22:55.113Z,13.11
2018-05-08T04:25:21.024Z,13.33
2018-05-08T04:27:46.940Z,13.38
2018-05-08T04:30:12.795Z,13.39
2018-05-08T04:32:38.694Z,13.47
2018-05-08T04:35:04.589Z,13.63
2018-05-08T04:37:30.495Z,13.87
2018-05-08T04:39:56.377Z,14.02
2018-05-08T04:42:22.318Z,14.07
2018-05-08T04:44:48.214Z,14.09
2018-05-08T04:47:14.123Z,14.20
2018-05-08T04:49:39.991Z,14.30
2018-05-08T04:52:05.933Z,14.37
2018-05-08T04:54:31.850Z,14.38
2018-05-08T04:56:57.744Z,14.47
2018-05-08T04:59:23.603Z,14.65
2018-05-08T05:01:49.499Z,14.86
2018-05-08T05:04:15.396Z,15.10
2018-05-08T05:06:41.311Z,15.30
2018-05-08T05:09:07.217Z,15.33
2018-05-08T05:11:33.107Z,15.34
2018-05-08T05:13:59.101Z,15.14
2018-05-08T05:16:25.011Z,14.80
2018-05-08T05:18:50.893Z,14.71
2018-05-08T05:21:16.883Z,14.64
2018-05-08T05:23:42.780Z,14.65
2018-05-08T05:26:08.721Z,14.61
2018-05-08T05:28:34.622Z,14.66
2018-05-08T05:31:00.527Z,14.67
2018-05-08T05:33:26.422Z,14.93
2018-05-08T05:35:52.310Z,15.37
2018-05-08T05:38:18.230Z,15.72
2018-05-08T05:40:44.096Z,16.01
2018-05-08T05:43:09.946Z,16.26
2018-05-08T05:45:35.840Z,16.40
2018-05-08T05:48:02.396Z,16.54
2018-05-08T05:50:28.332Z,16.56
2018-05-08T05:52:57.493Z,16.67
2018-05-08T05:55:23.416Z,16.80
2018-05-08T05:57:52.647Z,16.79
2018-05-08T06:00:18.540Z,16.79
2018-05-08T06:02:46.416Z,16.80
2018-05-08T06:05:12.405Z,17.02
2018-05-08T06:07:38.311Z,17.14
2018-05-08T06:10:04.187Z,17.25
2018-05-08T06:12:30.091Z,17.29
2018-05-08T06:15:00.630Z,17.50
2018-05-08T06:17:26.522Z,17.67
2018-05-08T06:19:53.179Z,17.76
2018-05-08T06:22:19.088Z,17.96
2018-05-08T06:24:48.346Z,18.07
2018-05-08T06:27:14.221Z,17.99
2018-05-08T06:29:43.549Z,17.87
2018-05-08T06:32:09.437Z,17.93
2018-05-08T06:34:38.887Z,18.23
2018-05-08T06:37:04.773Z,18.49
2018-05-08T06:39:31.947Z,18.71
2018-05-08T06:41:57.838Z,18.83
2018-05-08T06:44:23.788Z,18.95
2018-05-08T06:46:49.634Z,18.97
2018-05-08T06:49:15.577Z,19.00
2018-05-08T06:51:45.322Z,19.02
2018-05-08T06:54:11.253Z,19.22
2018-05-08T06:56:38.205Z,19.29
2018-05-08T06:59:04.096Z,19.27
2018-05-08T07:01:33.036Z,19.36
2018-05-08T07:03:58.936Z,19.66
2018-05-08T07:06:28.550Z,19.85
2018-05-08T07:08:55.356Z,20.19
2018-05-08T07:11:22.315Z,20.17
2018-05-08T07:13:48.209Z,20.45
2018-05-08T07:16:17.462Z,20.64
2018-05-08T07:18:43.205Z,21.06
2018-05-08T07:21:09.091Z,21.25
2018-05-08T07:23:35.016Z,21.23
2018-05-08T07:26:00.903Z,21.13
2018-05-08T07:28:30.239Z,21.38
2018-05-08T07:30:56.169Z,21.63
2018-05-08T07:33:23.572Z,21.41
2018-05-08T07:35:49.450Z,21.00
2018-05-08T07:38:18.750Z,21.38
2018-05-08T07:40:44.647Z,21.66
2018-05-08T07:43:13.936Z,21.36
2018-05-08T07:45:39.895Z,21.43
2018-05-08T07:48:09.271Z,21.60
2018-05-08T07:50:35.179Z,22.02
2018-05-08T07:53:02.471Z,22.12
2018-05-08T07:55:28.329Z,22.35
2018-05-08T07:57:54.220Z,22.74
2018-05-08T08:00:20.149Z,22.97
2018-05-08T08:02:46.067Z,22.99
2018-05-08T08:05:15.242Z,22.99
2018-05-08T08:07:41.154Z,23.16
2018-05-08T08:10:08.726Z,23.44
2018-05-08T08:12:34.639Z,23.73
2018-05-08T08:15:03.502Z,23.95
2018-05-08T08:17:29.425Z,24.19
2018-05-08T08:19:58.293Z,24.44
2018-05-08T08:22:24.200Z,24.71
2018-05-08T08:24:53.157Z,24.54
2018-05-08T08:27:19.028Z,24.43
2018-05-08T08:29:47.973Z,24.52
2018-05-08T08:32:13.816Z,24.57
2018-05-08T08:34:39.719Z,24.83
2018-05-08T08:37:05.595Z,24.68
2018-05-08T08:39:31.468Z,24.25
2018-05-08T08:41:59.332Z,23.95
2018-05-08T08:44:25.247Z,24.16
2018-05-08T08:46:53.961Z,24.41
2018-05-08T08:49:19.873Z,23.89
2018-05-08T08:51:48.764Z,23.60
2018-05-08T08:54:14.646Z,22.75
2018-05-08T08:56:44.544Z,23.05
2018-05-08T08:59:10.451Z,23.70
2018-05-08T09:01:39.351Z,24.14
2018-05-08T09:04:05.306Z,24.49
2018-05-08T09:06:33.145Z,24.97
2018-05-08T09:08:59.016Z,25.37
2018-05-08T09:11:24.878Z,24.90
2018-05-08T09:13:50.803Z,24.94
2018-05-08T09:16:16.695Z,25.21
2018-05-08T09:18:46.572Z,25.25
2018-05-08T09:21:12.442Z,25.32
2018-05-08T09:23:39.500Z,25.42
2018-05-08T09:26:05.401Z,25.73
2018-05-08T09:28:34.357Z,25.76
2018-05-08T09:31:00.263Z,25.85
2018-05-08T09:33:28.674Z,26.10
2018-05-08T09:35:54.575Z,26.27
2018-05-08T09:38:23.943Z,26.56
2018-05-08T09:40:49.812Z,26.48
2018-05-08T09:43:18.965Z,25.89
2018-05-08T09:45:44.895Z,25.00
2018-05-08T09:48:10.812Z,24.52
2018-05-08T09:50:36.691Z,25.10
2018-05-08T09:53:02.569Z,25.64
2018-05-08T09:55:29.824Z,26.05
2018-05-08T09:57:55.765Z,25.17
2018-05-08T10:00:24.579Z,24.32
2018-05-08T10:02:50.497Z,24.17
2018-05-08T10:05:23.256Z,24.72
2018-05-08T10:07:49.144Z,25.75
2018-05-08T10:10:15.056Z,26.22
2018-05-08T10:12:41.015Z,26.14
2018-05-08T10:15:23.151Z,26.24
2018-05-08T10:17:49.064Z,26.62
2018-05-08T10:20:14.996Z,26.94
2018-05-08T10:22:40.903Z,27.11
2018-05-08T10:25:06.790Z,26.50
2018-05-08T10:27:32.711Z,27.18
2018-05-08T10:29:58.628Z,27.11
2018-05-08T10:32:24.519Z,27.16
2018-05-08T10:34:50.410Z,26.45
2018-05-08T10:37:16.351Z,27.12
2018-05-08T10:39:42.288Z,27.61
2018-05-08T10:42:08.197Z,27.76
2018-05-08T10:44:34.104Z,28.09
2018-05-08T10:47:00.040Z,28.48
2018-05-08T10:49:25.931Z,28.74
2018-05-08T10:51:55.129Z,28.57
2018-05-08T10:54:21.036Z,27.77
2018-05-08T10:56:50.533Z,26.98
2018-05-08T10:59:16.451Z,26.87
2018-05-08T11:01:42.487Z,26.04
2018-05-08T11:04:08.306Z,26.35
2018-05-08T11:06:34.210Z,27.40
2018-05-08T11:09:00.735Z,27.07
2018-05-08T11:11:26.638Z,27.63
2018-05-08T11:13:56.495Z,28.37
2018-05-08T11:16:22.426Z,28.91
2018-05-08T11:18:50.482Z,28.76
2018-05-08T11:21:16.423Z,27.53
2018-05-08T11:23:45.329Z,28.38
2018-05-08T11:26:11.216Z,28.47
2018-05-08T11:28:40.451Z,27.54
2018-05-08T11:31:06.382Z,27.16
2018-05-08T11:33:35.746Z,27.85
2018-05-08T11:36:01.643Z,28.92
2018-05-08T11:38:27.566Z,29.64
2018-05-08T11:40:53.477Z,29.83
2018-05-08T11:43:19.393Z,29.42
2018-05-08T11:45:45.943Z,28.94
2018-05-08T11:48:11.851Z,29.65
2018-05-08T11:50:40.608Z,29.49
2018-05-08T11:53:06.545Z,29.62
2018-05-08T11:55:35.509Z,28.68
2018-05-08T11:58:01.431Z,29.18
2018-05-08T12:00:31.278Z,29.58
2018-05-08T12:02:57.167Z,30.20
2018-05-08T12:05:26.644Z,30.57
2018-05-08T12:07:52.591Z,30.75
2018-05-08T12:10:19.540Z,31.26
2018-05-08T12:12:45.431Z,30.75
2018-05-08T12:15:11.365Z,29.95
2018-05-08T12:17:37.304Z,30.26
2018-05-08T12:20:03.255Z,31.10
2018-05-08T12:22:31.185Z,31.19
2018-05-08T12:24:57.095Z,30.97
2018-05-08T12:27:25.960Z,30.79
2018-05-08T12:29:51.909Z,29.38
2018-05-08T12:32:20.781Z,30.27
2018-05-08T12:34:46.725Z,30.25
2018-05-08T12:37:16.263Z,30.60
2018-05-08T12:39:42.178Z,30.96
2018-05-08T12:42:10.175Z,31.44
2018-05-08T12:44:36.116Z,31.25
2018-05-08T12:47:05.951Z,30.28
2018-05-08T12:49:31.895Z,29.34
2018-05-08T12:51:57.817Z,30.44
2018-05-08T12:54:23.753Z,30.99
2018-05-08T12:56:49.667Z,31.21
2018-05-08T12:59:16.623Z,31.73
2018-05-08T13:01:42.522Z,32.03
2018-05-08T13:04:11.435Z,32.12
2018-05-08T13:06:37.336Z,32.36
2018-05-08T13:09:06.957Z,32.59
2018-05-08T13:11:32.864Z,32.91
2018-05-08T13:14:01.150Z,32.53
2018-05-08T13:16:27.099Z,32.36
2018-05-08T13:18:56.055Z,30.98
2018-05-08T13:21:21.967Z,29.65
2018-05-08T13:23:51.076Z,29.66
2018-05-08T13:26:16.966Z,30.74
2018-05-08T13:28:42.851Z,31.54
2018-05-08T13:31:08.904Z,31.48
2018-05-08T13:33:34.706Z,31.52
2018-05-08T13:36:01.972Z,30.95
2018-05-08T13:38:27.957Z,30.75
2018-05-08T13:40:57.252Z,31.09
2018-05-08T13:43:23.170Z,31.84
2018-05-08T13:45:52.295Z,32.17
2018-05-08T13:48:18.252Z,32.50
2018-05-08T13:50:47.648Z,32.52
2018-05-08T13:53:13.532Z,32.81
2018-05-08T13:55:40.932Z,33.10
2018-05-08T13:58:06.833Z,32.92
2018-05-08T14:00:35.779Z,33.26
2018-05-08T14:03:01.695Z,32.71
2018-05-08T14:05:27.629Z,32.78
2018-05-08T14:07:53.563Z,32.54
2018-05-08T14:10:19.496Z,32.57
2018-05-08T14:12:48.842Z,32.72
2018-05-08T14:15:14.756Z,32.98
2018-05-08T14:17:43.799Z,33.26
2018-05-08T14:20:09.748Z,33.38
2018-05-08T14:22:36.867Z,33.70
2018-05-08T14:25:02.764Z,33.33
2018-05-08T14:27:31.991Z,32.56
2018-05-08T14:29:57.966Z,31.39
2018-05-08T14:32:27.047Z,31.28
2018-05-08T14:34:53.149Z,31.56
2018-05-08T14:37:22.308Z,32.33
2018-05-08T14:39:48.272Z,32.74
2018-05-08T14:42:14.156Z,32.67
2018-05-08T14:44:40.163Z,32.72
2018-05-08T14:47:06.074Z,32.97
2018-05-08T14:49:33.036Z,32.77
2018-05-08T14:51:58.928Z,32.73
2018-05-08T14:54:28.138Z,32.88
2018-05-08T14:56:54.061Z,33.07
2018-05-08T14:59:23.030Z,32.83
2018-05-08T15:01:48.979Z,32.78
2018-05-08T15:04:16.866Z,32.90
2018-05-08T15:06:42.796Z,32.88
2018-05-08T15:09:11.877Z,33.08
2018-05-08T15:11:37.845Z,32.87
2018-05-08T15:14:07.796Z,32.81
2018-05-08T15:16:33.743Z,32.95
2018-05-08T15:18:59.639Z,32.65
2018-05-08T15:21:25.528Z,32.25
2018-05-08T15:23:51.431Z,32.49
2018-05-08T15:26:18.190Z,32.10
2018-05-08T15:28:44.080Z,31.09
2018-05-08T15:31:13.770Z,31.68
2018-05-08T15:33:39.687Z,31.80
2018-05-08T15:36:08.880Z,32.03
2018-05-08T15:38:34.793Z,32.36
2018-05-08T15:41:02.740Z,32.04
2018-05-08T15:43:28.663Z,32.14
2018-05-08T15:45:57.647Z,32.07
2018-05-08T15:48:23.552Z,31.76
2018-05-08T15:50:52.573Z,31.68
2018-05-08T15:53:18.493Z,31.49
2018-05-08T15:55:44.370Z,31.42
2018-05-08T15:58:10.292Z,31.38
2018-05-08T16:00:36.200Z,31.57
2018-05-08T16:03:03.103Z,31.61
2018-05-08T16:05:29.015Z,31.34
2018-05-08T16:07:57.917Z,31.06
2018-05-08T16:10:23.795Z,31.09
2018-05-08T16:12:53.532Z,30.82
2018-05-08T16:15:19.399Z,30.92
2018-05-08T16:17:48.456Z,30.69
2018-05-08T16:20:14.408Z,30.32
2018-05-08T16:22:42.106Z,30.16
2018-05-08T16:25:08.000Z,29.98
2018-05-08T16:27:37.927Z,29.83
2018-05-08T16:30:03.875Z,29.82
2018-05-08T16:32:29.771Z,29.84
2018-05-08T16:34:55.739Z,29.69
2018-05-08T16:37:21.662Z,29.67
2018-05-08T16:39:48.960Z,29.55
2018-05-08T16:42:14.883Z,29.42
2018-05-08T16:44:44.633Z,29.36
2018-05-08T16:47:10.535Z,29.34
2018-05-08T16:49:39.547Z,29.25
2018-05-08T16:52:05.463Z,28.94
2018-05-08T16:54:34.434Z,28.86
2018-05-08T16:57:00.339Z,28.33
2018-05-08T16:59:27.424Z,28.25
2018-05-08T17:01:53.303Z,28.14
2018-05-08T17:04:22.255Z,28.06
2018-05-08T17:06:48.155Z,27.85
2018-05-08T17:09:14.081Z,27.77
2018-05-08T17:11:40.006Z,27.63
2018-05-08T17:14:05.987Z,27.49
2018-05-08T17:16:35.607Z,27.23
2018-05-08T17:19:01.535Z,27.18
2018-05-08T17:21:28.657Z,27.14
2018-05-08T17:23:54.533Z,27.05
2018-05-08T17:26:23.897Z,27.00
2018-05-08T17:28:49.807Z,26.80
2018-05-08T17:31:18.989Z,26.72
2018-05-08T17:33:44.881Z,26.65
2018-05-08T17:36:12.811Z,26.59
2018-05-08T17:38:38.707Z,26.49
2018-05-08T17:41:07.812Z,26.39
2018-05-08T17:43:33.709Z,26.13
2018-05-08T17:45:59.601Z,26.15
2018-05-08T17:48:25.495Z,26.09
2018-05-08T17:50:51.416Z,26.00
2018-05-08T17:53:17.321Z,25.92
2018-05-08T17:55:43.223Z,25.88
2018-05-08T17:58:09.120Z,25.83
2018-05-08T18:00:35.017Z,25.61
2018-05-08T18:03:00.953Z,25.49
2018-05-08T18:05:26.843Z,25.31
2018-05-08T18:07:52.711Z,25.30
2018-05-08T18:10:18.789Z,25.30
2018-05-08T18:12:44.679Z,25.16
2018-05-08T18:15:10.618Z,25.15
2018-05-08T18:17:36.668Z,25.10
2018-05-08T18:20:02.569Z,25.06
2018-05-08T18:22:28.469Z,24.92
2018-05-08T18:24:54.390Z,24.80
2018-05-08T18:27:20.337Z,24.68
2018-05-08T18:29:46.260Z,24.48
2018-05-08T18:32:12.348Z,24.33
2018-05-08T18:34:38.297Z,24.27
2018-05-08T18:37:04.245Z,24.17
2018-05-08T18:42:01.356Z,23.94
2018-05-08T18:44:30.746Z,23.83
2018-05-08T18:46:56.847Z,23.74
2018-05-08T18:49:23.467Z,23.68
2018-05-08T18:51:49.363Z,23.54
2018-05-08T18:54:15.335Z,23.41
2018-05-08T18:56:41.262Z,23.30
2018-05-08T18:59:07.192Z,23.14
2018-05-08T19:01:34.931Z,23.03
2018-05-08T19:04:00.884Z,22.91
2018-05-08T19:06:30.066Z,22.80
2018-05-08T19:08:55.959Z,22.65
2018-05-08T19:14:16.450Z,22.52
2018-05-08T19:16:42.440Z,22.47
2018-05-08T19:19:14.342Z,22.43
2018-05-08T19:21:40.320Z,22.34
2018-05-08T19:24:12.242Z,22.19
2018-05-08T19:26:38.254Z,22.15
2018-05-08T19:29:10.236Z,22.11
2018-05-08T19:31:36.219Z,22.11
2018-05-08T19:34:02.196Z,22.09
2018-05-08T19:36:34.195Z,22.08
2018-05-08T19:39:00.160Z,22.01
2018-05-08T19:41:26.120Z,21.88
2018-05-08T19:43:52.147Z,21.81
2018-05-08T19:46:18.109Z,21.74
2018-05-08T19:48:44.060Z,21.76
2018-05-08T19:51:10.030Z,21.71
2018-05-08T19:53:35.918Z,21.69
2018-05-08T19:56:01.878Z,21.60
2018-05-08T19:58:27.813Z,21.45
2018-05-08T20:00:53.764Z,21.44
2018-05-08T20:03:19.769Z,21.34
2018-05-08T20:05:45.804Z,21.22
2018-05-08T20:08:11.762Z,21.13
2018-05-08T20:10:37.692Z,21.06
2018-05-08T20:13:03.653Z,20.97
2018-05-08T20:15:29.614Z,20.99
2018-05-08T20:17:55.568Z,20.99
2018-05-08T20:20:21.578Z,21.11
2018-05-08T20:22:47.536Z,21.11
2018-05-08T20:25:13.495Z,21.12
2018-05-08T20:27:39.477Z,21.00
2018-05-08T20:30:05.472Z,20.74
2018-05-08T20:32:31.421Z,20.60
2018-05-08T20:34:57.560Z,20.48
2018-05-08T20:37:23.523Z,20.38
2018-05-08T20:39:49.480Z,20.27
2018-05-08T20:42:15.436Z,20.24
2018-05-08T20:44:41.449Z,20.19
2018-05-08T20:47:07.446Z,20.19
2018-05-08T20:49:33.399Z,20.13
2018-05-08T20:51:59.412Z,19.91
2018-05-08T20:54:25.349Z,19.86
2018-05-08T20:56:51.328Z,19.84
2018-05-08T20:59:17.288Z,19.73
2018-05-08T21:01:43.322Z,19.60
2018-05-08T21:04:09.216Z,19.41
2018-05-08T21:06:35.142Z,19.32
2018-05-08T21:09:01.127Z,19.19
2018-05-08T21:11:30.028Z,19.01
2018-05-08T21:13:56.023Z,18.87
2018-05-08T21:16:25.404Z,18.87
2018-05-08T21:18:51.424Z,18.83
2018-05-08T21:21:17.373Z,18.81
2018-05-08T21:23:43.347Z,18.69
2018-05-08T21:26:09.278Z,18.60
2018-05-08T21:28:41.904Z,18.51
2018-05-08T21:31:13.888Z,18.44
2018-05-08T21:33:39.840Z,18.43
2018-05-08T21:36:05.848Z,18.33
2018-05-08T21:38:31.825Z,18.32
2018-05-08T21:40:57.928Z,18.13
2018-05-08T21:43:23.872Z,18.07
2018-05-08T21:45:49.918Z,18.05
2018-05-08T21:48:15.877Z,18.07
2018-05-08T21:50:41.879Z,18.07
2018-05-08T21:53:09.767Z,17.96
2018-05-08T21:55:35.728Z,17.98
2018-05-08T21:58:01.733Z,17.91
2018-05-08T22:00:27.730Z,17.76
2018-05-08T22:02:53.635Z,17.80
2018-05-08T22:05:21.617Z,18.09
2018-05-08T22:07:47.537Z,18.27
2018-05-08T22:10:16.655Z,18.27
2018-05-08T22:12:42.594Z,18.27
2018-05-08T22:15:12.424Z,18.23
2018-05-08T22:17:38.388Z,18.21
2018-05-08T22:20:05.784Z,18.15
2018-05-08T22:22:31.827Z,18.13
2018-05-08T22:25:00.580Z,17.95
2018-05-08T22:27:26.491Z,17.92
2018-05-08T22:29:55.448Z,17.94
2018-05-08T22:32:21.432Z,17.93
2018-05-08T22:34:47.406Z,18.00
2018-05-08T22:37:13.351Z,17.91
2018-05-08T22:39:39.293Z,17.69
2018-05-08T22:42:06.539Z,17.57
2018-05-08T22:44:32.468Z,17.43
2018-05-08T22:47:02.046Z,17.37
2018-05-08T22:49:27.956Z,17.28
2018-05-08T22:51:57.409Z,17.28
2018-05-08T22:54:23.359Z,17.34
2018-05-08T22:56:50.627Z,17.33
2018-05-08T22:59:16.580Z,17.40
2018-05-08T23:01:45.944Z,17.25
2018-05-08T23:04:11.880Z,17.30
2018-05-08T23:06:41.076Z,17.32
2018-05-08T23:09:07.078Z,17.27
2018-05-08T23:11:33.020Z,17.25
2018-05-08T23:13:59.039Z,17.14
2018-05-08T23:16:24.959Z,17.20
2018-05-08T23:18:52.323Z,17.12
2018-05-08T23:21:18.272Z,16.98
2018-05-08T23:23:47.570Z,16.92
2018-05-08T23:26:13.522Z,16.99
2018-05-08T23:28:42.986Z,16.97
2018-05-08T23:31:08.940Z,16.98
2018-05-08T23:33:36.097Z,17.05
2018-05-08T23:36:02.037Z,17.07
2018-05-08T23:38:31.587Z,17.10
2018-05-08T23:40:57.513Z,17.10
2018-05-08T23:43:30.899Z,16.92
2018-05-08T23:45:56.861Z,16.81
2018-05-08T23:48:22.795Z,16.53
2018-05-08T23:50:48.752Z,16.22
2018-05-08T23:53:14.703Z,16.12
2018-05-08T23:55:40.635Z,16.15
2018-05-08T23:58:06.628Z,16.29
